Flight Track Log - Related Links

Times and Time Zones

All times are in EDT time to prevent confusion due to time zone crossing. See the TAM8091 flight status page for this flight to view local times or setup timezone preferences in your user account.

Time Position Orientation Groundspeed Altitude Reporting Facility
EDT Latitude Longitude Course Direction KTS MPH feet Rate Location/Type
Sat 09:18:17 PM 25.8020 -80.2660 90° East 196 226 300  Level FlightAware ADS-B
Sat 09:18:37 PM 25.8030 -80.2500 86° East 202 232 1,000 2,000 Climbing FlightAware ADS-B
Sat 09:19:02 PM 25.7950 -80.2210 107° East 219 252 1,800 1,650 Climbing FlightAware ADS-B
Sat 09:19:17 PM 25.7890 -80.2050 113° Southeast 238 274 2,100 1,350 Climbing FlightAware ADS-B
Sat 09:19:42 PM 25.7760 -80.1750 116° Southeast 259 298 2,700 1,650 Climbing FlightAware ADS-B
Sat 09:19:57 PM 25.7680 -80.1560 115° Southeast 268 308 3,200 1,800 Climbing FlightAware ADS-B
Sat 09:20:12 PM 25.7560 -80.1410 132° Southeast 275 316 3,600 2,000 Climbing FlightAware ADS-B
Sat 09:20:27 PM 25.7390 -80.1330 157° South 275 316 4,200 2,550 Climbing FlightAware ADS-B
Sat 09:20:52 PM 25.7080 -80.1230 164° South 279 321 5,300 2,571 Climbing FlightAware ADS-B
Sat 09:21:02 PM 25.6950 -80.1190 165° South 280 322 5,700 2,533 Climbing FlightAware ADS-B
Sat 09:21:37 PM 25.6490 -80.1040 164° South 285 328 7,200 2,400 Climbing FlightAware ADS-B
Sat 09:22:02 PM 25.6190 -80.0940 163° South 290 334 8,100 2,182 Climbing FlightAware ADS-B
Sat 09:22:32 PM 25.5790 -80.0810 164° South 297 342 9,200 1,971 Climbing FlightAware ADS-B
Sat 09:23:12 PM 25.5290 -80.0640 163° South 307 353 10,400 1,412 Climbing FlightAware ADS-B
Sat 09:23:57 PM 25.4580 -80.0400 163° South 359 413 11,200 1,059 Climbing FlightAware ADS-B
Sat 09:24:37 PM 25.3920 -80.0180 163° South 387 445 11,900 1,867 Climbing FlightAware ADS-B
Sat 09:25:27 PM 25.3100 -79.9900 163° South 397 457 14,000 2,455 Climbing FlightAware ADS-B
Sat 09:26:27 PM 25.2040 -79.9210 149° Southeast 412 474 16,400 2,114 Climbing FlightAware ADS-B
Sat 09:27:12 PM 25.1330 -79.8690 146° Southeast 421 484 17,700 1,326 Climbing FlightAware ADS-B
Sat 09:28:02 PM 25.0530 -79.8120 147° Southeast 441 507 18,500 533 Climbing FlightAware ADS-B
Sat 09:28:42 PM 24.9950 -79.7710 147° Southeast 441 507 18,500  Level FlightAware ADS-B
Sat 09:29:32 PM 24.9220 -79.7190 147° Southeast 441 507 18,500  Level FlightAware ADS-B
Sat 09:30:12 PM 24.8640 -79.6770 147° Southeast 441 507 18,500  Level FlightAware ADS-B
Sat 09:30:52 PM 24.8060 -79.6350 147° Southeast 441 507 18,500  Level FlightAware ADS-B
Sat 09:31:32 PM 24.7480 -79.5940 147° Southeast 441 507 18,500 6,381 Level FlightAware ADS-B
Sat 09:31:55 PM 24.6292 -79.5128 147° Southeast 474 545 25,200 5,783 Climbing Miami Center
Sat 09:32:55 PM 24.5136 -79.4283 146° Southeast 494 568 26,500 1,300 Climbing Miami Center
Sat 09:33:55 PM 24.3897 -79.3414 147° Southeast 506 582 27,800 1,350 Climbing Miami Center
Sat 09:34:55 PM 24.2636 -79.2589 149° Southeast 518 596 29,200 1,200 Climbing Miami Center
Sat 09:35:55 PM 24.1272 -79.1608 147° Southeast 524 603 30,200 738 Climbing Miami Center
Sat 09:36:57 PM 24.0094 -79.0789 148° Southeast 526 605 30,700 13 Climbing Miami Center
Sat 09:38:00 PM 24.1276 -79.1194 341° North  Level FlightAware Approximate
Sat 09:45:00 PM 25.0773 -79.4856 341° North  Level FlightAware Approximate
Sat 09:46:00 PM 25.2130 -79.5382 341° North  Level FlightAware Approximate
Sat 09:47:00 PM 25.3491 -79.5892 341° North  Level FlightAware Approximate
Sat 09:48:00 PM 25.4853 -79.6405 341° North  Level FlightAware Approximate
Sat 09:49:00 PM 25.6209 -79.6933 341° North  Level FlightAware Approximate
Sat 09:50:00 PM 25.7566 -79.7461 341° North  Level FlightAware Approximate
Sat 09:51:00 PM 25.8922 -79.7990 341° North  Level FlightAware Approximate
Sat 09:52:00 PM 26.0279 -79.8521 341° North  Level FlightAware Approximate
Sat 09:53:00 PM 26.1634 -79.9054 340° North  Level FlightAware Approximate
Sat 09:54:00 PM 26.2986 -79.9601 340° North  Level FlightAware Approximate
Sat 09:55:00 PM 26.4337 -80.0150 340° North  Level FlightAware Approximate
Sat 09:56:00 PM 26.5688 -80.0699 340° North  Level FlightAware Approximate
Sat 09:57:00 PM 26.6655 -80.1026 145° Southeast  Level FlightAware Approximate
Sat 09:58:00 PM 26.5481 -80.0098 145° Southeast  Level FlightAware Approximate
Sat 09:59:00 PM 26.4306 -79.9172 145° Southeast  Level FlightAware Approximate
Sat 10:00:00 PM 26.3131 -79.8247 145° Southeast  Level FlightAware Approximate
Sat 10:01:00 PM 26.1955 -79.7325 145° Southeast  Level FlightAware Approximate
Sat 10:02:00 PM 26.0779 -79.6404 145° Southeast  Level FlightAware Approximate
Sat 10:03:00 PM 25.9607 -79.5477 143° Southeast  Level FlightAware Approximate
Sat 10:04:00 PM 25.8457 -79.4518 143° Southeast  Level FlightAware Approximate
Sat 10:05:00 PM 25.7307 -79.3560 143° Southeast  Level FlightAware Approximate
Sat 10:06:00 PM 25.6144 -79.2621 144° Southeast  Level FlightAware Approximate
Sat 10:07:00 PM 25.4973 -79.1696 145° Southeast  Level FlightAware Approximate
Sat 10:08:00 PM 25.3802 -79.0773 145° Southeast  Level FlightAware Approximate
Sat 10:09:00 PM 25.2631 -78.9850 144° Southeast  Level FlightAware Approximate
Sat 10:10:00 PM 25.1460 -78.8929 145° Southeast  Level FlightAware Approximate
Sat 10:11:00 PM 25.0288 -78.8009 145° Southeast  Level FlightAware Approximate
Sat 10:12:00 PM 24.9116 -78.7091 145° Southeast  Level FlightAware Approximate
Sat 10:13:00 PM 24.7938 -78.6181 145° Southeast  Level FlightAware Approximate
Sat 10:14:00 PM 24.6760 -78.5275 145° Southeast  Level FlightAware Approximate
Sat 10:15:00 PM 24.5581 -78.4370 145° Southeast  Level FlightAware Approximate
Sat 10:16:00 PM 24.4401 -78.3466 145° Southeast  Level FlightAware Approximate
Sat 10:17:00 PM 24.3221 -78.2565 145° Southeast  Level FlightAware Approximate
Sat 10:18:00 PM 24.2041 -78.1665 145° Southeast  Level FlightAware Approximate
Sat 10:19:00 PM 24.0872 -78.0747 142° Southeast  Level FlightAware Approximate
Sat 10:20:00 PM 23.9728 -77.9795 146° Southeast  Level FlightAware Approximate
Sat 10:21:00 PM 23.8542 -77.8906 146° Southeast  Level FlightAware Approximate
Sat 10:22:00 PM 23.7361 -77.8010 145° Southeast  Level FlightAware Approximate
Sat 10:23:00 PM 23.6184 -77.7109 145° Southeast  Level FlightAware Approximate
Sat 10:24:00 PM 23.5006 -77.6209 145° Southeast  Level FlightAware Approximate
Sat 10:25:00 PM 23.3827 -77.5312 145° Southeast  Level FlightAware Approximate
Sat 10:26:00 PM 23.2648 -77.4416 145° Southeast  Level FlightAware Approximate
Sat 10:27:00 PM 23.1469 -77.3521 145° Southeast  Level FlightAware Approximate
Sat 10:28:00 PM 23.0289 -77.2628 145° Southeast  Level FlightAware Approximate
Sat 10:29:00 PM 22.9109 -77.1736 145° Southeast  Level FlightAware Approximate
Sat 10:30:00 PM 22.7928 -77.0846 145° Southeast  Level FlightAware Approximate
Sat 10:31:00 PM 22.6746 -76.9958 145° Southeast  Level FlightAware Approximate
Sat 10:32:00 PM 22.5564 -76.9071 145° Southeast  Level FlightAware Approximate
Sat 10:33:00 PM 22.4382 -76.8186 145° Southeast  Level FlightAware Approximate
Sat 10:34:00 PM 22.3199 -76.7302 145° Southeast  Level FlightAware Approximate
Sat 10:35:00 PM 22.2016 -76.6419 145° Southeast  Level FlightAware Approximate
Sat 10:36:00 PM 22.0832 -76.5538 145° Southeast  Level FlightAware Approximate
Sat 10:37:00 PM 21.9648 -76.4659 145° Southeast  Level FlightAware Approximate
Sat 10:38:00 PM 21.8463 -76.3781 145° Southeast  Level FlightAware Approximate
Sat 10:39:00 PM 21.7278 -76.2905 146° Southeast  Level FlightAware Approximate
Sat 10:40:00 PM 21.6092 -76.2029 146° Southeast  Level FlightAware Approximate
Sat 10:41:00 PM 21.4906 -76.1156 146° Southeast  Level FlightAware Approximate
Sat 10:42:00 PM 21.3720 -76.0284 146° Southeast  Level FlightAware Approximate
Sat 10:43:00 PM 21.2533 -75.9413 146° Southeast  Level FlightAware Approximate
Sat 10:44:00 PM 21.1345 -75.8543 146° Southeast  Level FlightAware Approximate
Sat 10:45:00 PM 21.0157 -75.7675 146° Southeast  Level FlightAware Approximate
Sat 10:46:00 PM 20.8969 -75.6809 146° Southeast  Level FlightAware Approximate
Sat 10:47:00 PM 20.7780 -75.5944 146° Southeast  Level FlightAware Approximate
Sat 10:48:00 PM 20.6591 -75.5080 146° Southeast  Level FlightAware Approximate
Sat 10:49:00 PM 20.5401 -75.4217 146° Southeast  Level FlightAware Approximate
Sat 10:50:00 PM 20.4211 -75.3356 146° Southeast  Level FlightAware Approximate
Sat 10:51:00 PM 20.3021 -75.2496 146° Southeast  Level FlightAware Approximate
Sat 10:52:00 PM 20.1830 -75.1638 146° Southeast  Level FlightAware Approximate
Sat 10:53:00 PM 20.0639 -75.0781 146° Southeast  Level FlightAware Approximate
Sat 10:54:00 PM 19.9447 -74.9925 146° Southeast  Level FlightAware Approximate
Sat 10:55:00 PM 19.8255 -74.9070 146° Southeast  Level FlightAware Approximate
Sat 10:56:00 PM 19.7062 -74.8217 146° Southeast  Level FlightAware Approximate
Sat 10:57:00 PM 19.5869 -74.7365 146° Southeast  Level FlightAware Approximate
Sat 10:58:00 PM 19.4676 -74.6514 146° Southeast  Level FlightAware Approximate
Sat 10:59:00 PM 19.3482 -74.5664 146° Southeast  Level FlightAware Approximate
Sat 11:00:00 PM 19.2288 -74.4816 146° Southeast  Level FlightAware Approximate
Sat 11:01:00 PM 19.1094 -74.3969 146° Southeast  Level FlightAware Approximate
Sat 11:02:00 PM 18.9900 -74.3121 146° Southeast  Level FlightAware Approximate
Sat 11:03:00 PM 18.8707 -74.2273 146° Southeast  Level FlightAware Approximate
Sat 11:04:00 PM 18.7513 -74.1427 146° Southeast  Level FlightAware Approximate
Sat 11:05:00 PM 18.6319 -74.0581 146° Southeast  Level FlightAware Approximate
Sat 11:06:00 PM 18.5124 -73.9737 146° Southeast  Level FlightAware Approximate
Sat 11:07:00 PM 18.3930 -73.8894 146° Southeast  Level FlightAware Approximate
Sat 11:08:00 PM 18.2735 -73.8052 146° Southeast  Level FlightAware Approximate
Sat 11:09:00 PM 18.1539 -73.7211 146° Southeast  Level FlightAware Approximate
Sat 11:10:00 PM 18.0343 -73.6372 146° Southeast  Level FlightAware Approximate
Sat 11:11:00 PM 17.9147 -73.5533 146° Southeast  Level FlightAware Approximate
Sat 11:12:00 PM 17.7950 -73.4696 146° Southeast  Level FlightAware Approximate
Sat 11:13:00 PM 17.6753 -73.3859 146° Southeast  Level FlightAware Approximate
Sat 11:14:00 PM 17.5556 -73.3024 146° Southeast  Level FlightAware Approximate
Sat 11:15:00 PM 17.4358 -73.2190 146° Southeast  Level FlightAware Approximate
Sat 11:16:00 PM 17.3160 -73.1357 146° Southeast  Level FlightAware Approximate
Sat 11:17:00 PM 17.1962 -73.0526 146° Southeast  Level FlightAware Approximate
Sat 11:18:00 PM 17.0763 -72.9695 146° Southeast  Level FlightAware Approximate
Sat 11:19:00 PM 16.9564 -72.8866 147° Southeast  Level FlightAware Approximate
Sat 11:20:00 PM 16.8364 -72.8038 147° Southeast  Level FlightAware Approximate
Sat 11:21:00 PM 16.7164 -72.7212 147° Southeast  Level FlightAware Approximate
Sat 11:22:00 PM 16.5963 -72.6386 147° Southeast  Level FlightAware Approximate
Sat 11:23:00 PM 16.4762 -72.5562 147° Southeast  Level FlightAware Approximate
Sat 11:24:00 PM 16.3560 -72.4739 147° Southeast  Level FlightAware Approximate
Sat 11:25:00 PM 16.2359 -72.3916 147° Southeast  Level FlightAware Approximate
Sat 11:26:00 PM 16.1157 -72.3095 147° Southeast  Level FlightAware Approximate
Sat 11:27:00 PM 15.9954 -72.2275 147° Southeast  Level FlightAware Approximate
Sat 11:28:00 PM 15.8752 -72.1455 147° Southeast  Level FlightAware Approximate
Sat 11:29:00 PM 15.7549 -72.0637 147° Southeast  Level FlightAware Approximate
Sat 11:30:00 PM 15.6345 -71.9819 147° Southeast  Level FlightAware Approximate
Sat 11:31:00 PM 15.5142 -71.9003 147° Southeast  Level FlightAware Approximate
Sat 11:32:00 PM 15.3938 -71.8188 147° Southeast  Level FlightAware Approximate
Sat 11:33:00 PM 15.2734 -71.7373 147° Southeast  Level FlightAware Approximate
Sat 11:34:00 PM 15.1529 -71.6559 147° Southeast  Level FlightAware Approximate
Sat 11:35:00 PM 15.0325 -71.5747 147° Southeast  Level FlightAware Approximate
Sat 11:36:00 PM 14.9120 -71.4935 147° Southeast  Level FlightAware Approximate
Sat 11:37:00 PM 14.7914 -71.4124 147° Southeast  Level FlightAware Approximate
Sat 11:38:00 PM 14.6709 -71.3314 147° Southeast  Level FlightAware Approximate
Sat 11:39:00 PM 14.5503 -71.2505 147° Southeast  Level FlightAware Approximate
Sat 11:40:00 PM 14.4297 -71.1697 147° Southeast  Level FlightAware Approximate
Sat 11:41:00 PM 14.3090 -71.0889 147° Southeast  Level FlightAware Approximate
Sat 11:42:00 PM 14.1883 -71.0083 147° Southeast  Level FlightAware Approximate
Sat 11:43:00 PM 14.0676 -70.9277 147° Southeast  Level FlightAware Approximate
Sat 11:44:00 PM 13.9469 -70.8473 147° Southeast  Level FlightAware Approximate
Sat 11:45:00 PM 13.8262 -70.7669 147° Southeast  Level FlightAware Approximate
Sat 11:46:00 PM 13.7054 -70.6866 147° Southeast  Level FlightAware Approximate
Sat 11:47:00 PM 13.5846 -70.6064 147° Southeast  Level FlightAware Approximate
Sat 11:48:00 PM 13.4638 -70.5262 147° Southeast  Level FlightAware Approximate
Sat 11:49:00 PM 13.3429 -70.4462 147° Southeast  Level FlightAware Approximate
Sat 11:50:00 PM 13.2220 -70.3662 147° Southeast  Level FlightAware Approximate
Sat 11:51:00 PM 13.1011 -70.2863 147° Southeast  Level FlightAware Approximate
Sat 11:52:00 PM 12.9802 -70.2065 147° Southeast  Level FlightAware Approximate
Sat 11:53:00 PM 12.8593 -70.1267 147° Southeast  Level FlightAware Approximate
Sat 11:54:00 PM 12.7383 -70.0470 147° Southeast  Level FlightAware Approximate
Sat 11:55:00 PM 12.6173 -69.9674 147° Southeast  Level FlightAware Approximate
Sat 11:56:00 PM 12.4963 -69.8879 147° Southeast  Level FlightAware Approximate
Sat 11:57:00 PM 12.3752 -69.8085 147° Southeast  Level FlightAware Approximate
Sat 11:58:00 PM 12.2541 -69.7291 147° Southeast  Level FlightAware Approximate
Sat 11:59:00 PM 12.1330 -69.6498 148° Southeast  Level FlightAware Approximate
Sun 12:00:00 AM 12.0113 -69.5716 148° Southeast  Level FlightAware Approximate
Sun 12:01:00 AM 11.8895 -69.4935 148° Southeast  Level FlightAware Approximate
Sun 12:02:00 AM 11.7677 -69.4155 148° Southeast  Level FlightAware Approximate
Sun 12:03:00 AM 11.6459 -69.3375 148° Southeast  Level FlightAware Approximate
Sun 12:04:00 AM 11.5240 -69.2596 148° Southeast  Level FlightAware Approximate
Sun 12:05:00 AM 11.4021 -69.1818 148° Southeast  Level FlightAware Approximate
Sun 12:06:00 AM 11.2802 -69.1040 148° Southeast  Level FlightAware Approximate
Sun 12:07:00 AM 11.1583 -69.0263 148° Southeast  Level FlightAware Approximate
Sun 12:08:00 AM 11.0364 -68.9487 148° Southeast  Level FlightAware Approximate
Sun 12:09:00 AM 10.9145 -68.8711 148° Southeast  Level FlightAware Approximate
Sun 12:10:00 AM 10.7925 -68.7936 148° Southeast  Level FlightAware Approximate
Sun 12:11:00 AM 10.6709 -68.7156 148° Southeast  Level FlightAware Approximate
Sun 12:12:00 AM 10.5495 -68.6372 148° Southeast  Level FlightAware Approximate
Sun 12:13:00 AM 10.4281 -68.5589 148° Southeast  Level FlightAware Approximate
Sun 12:14:00 AM 10.3066 -68.4807 148° Southeast  Level FlightAware Approximate
Sun 12:15:00 AM 10.1851 -68.4025 148° Southeast  Level FlightAware Approximate
Sun 12:16:00 AM 10.0636 -68.3244 148° Southeast  Level FlightAware Approximate
Sun 12:17:00 AM 9.9421 -68.2464 148° Southeast  Level FlightAware Approximate
Sun 12:18:00 AM 9.8206 -68.1684 148° Southeast  Level FlightAware Approximate
Sun 12:19:00 AM 9.6991 -68.0905 148° Southeast  Level FlightAware Approximate
Sun 12:20:00 AM 9.5775 -68.0126 148° Southeast  Level FlightAware Approximate
Sun 12:21:00 AM 9.4559 -67.9348 148° Southeast  Level FlightAware Approximate
Sun 12:22:00 AM 9.3343 -67.8570 148° Southeast  Level FlightAware Approximate
Sun 12:23:00 AM 9.2127 -67.7793 148° Southeast  Level FlightAware Approximate
Sun 12:24:00 AM 9.0911 -67.7016 148° Southeast  Level FlightAware Approximate
Sun 12:25:00 AM 8.9695 -67.6240 148° Southeast  Level FlightAware Approximate
Sun 12:26:00 AM 8.8478 -67.5465 148° Southeast  Level FlightAware Approximate
Sun 12:27:00 AM 8.7261 -67.4690 148° Southeast  Level FlightAware Approximate
Sun 12:28:00 AM 8.6045 -67.3915 148° Southeast  Level FlightAware Approximate
Sun 12:29:00 AM 8.4827 -67.3141 148° Southeast  Level FlightAware Approximate
Sun 12:30:00 AM 8.3610 -67.2368 148° Southeast  Level FlightAware Approximate
Sun 12:31:00 AM 8.2393 -67.1595 148° Southeast  Level FlightAware Approximate
Sun 12:32:00 AM 8.1175 -67.0822 148° Southeast  Level FlightAware Approximate
Sun 12:33:00 AM 7.9958 -67.0050 148° Southeast  Level FlightAware Approximate
Sun 12:34:00 AM 7.8740 -66.9279 148° Southeast  Level FlightAware Approximate
Sun 12:35:00 AM 7.7522 -66.8507 148° Southeast  Level FlightAware Approximate
Sun 12:36:00 AM 7.6304 -66.7737 148° Southeast  Level FlightAware Approximate
Sun 12:37:00 AM 7.5086 -66.6966 148° Southeast  Level FlightAware Approximate
Sun 12:38:00 AM 7.3867 -66.6197 148° Southeast  Level FlightAware Approximate
Sun 12:39:00 AM 7.2649 -66.5427 148° Southeast  Level FlightAware Approximate
Sun 12:40:00 AM 7.1430 -66.4658 148° Southeast  Level FlightAware Approximate
Sun 12:41:00 AM 7.0212 -66.3889 148° Southeast  Level FlightAware Approximate
Sun 12:42:00 AM 6.8993 -66.3121 148° Southeast  Level FlightAware Approximate
Sun 12:43:00 AM 6.7774 -66.2354 148° Southeast  Level FlightAware Approximate
Sun 12:44:00 AM 6.6554 -66.1586 148° Southeast  Level FlightAware Approximate
Sun 12:45:00 AM 6.5335 -66.0819 148° Southeast  Level FlightAware Approximate
Sun 12:46:00 AM 6.4116 -66.0052 148° Southeast  Level FlightAware Approximate
Sun 12:47:00 AM 6.2896 -65.9286 148° Southeast  Level FlightAware Approximate
Sun 12:48:00 AM 6.1677 -65.8520 148° Southeast  Level FlightAware Approximate
Sun 12:49:00 AM 6.0457 -65.7755 148° Southeast  Level FlightAware Approximate
Sun 12:50:00 AM 5.9237 -65.6989 148° Southeast  Level FlightAware Approximate
Sun 12:51:00 AM 5.8018 -65.6225 148° Southeast  Level FlightAware Approximate
Sun 12:52:00 AM 5.6797 -65.5460 148° Southeast  Level FlightAware Approximate
Sun 12:53:00 AM 5.5577 -65.4696 148° Southeast  Level FlightAware Approximate
Sun 12:54:00 AM 5.4357 -65.3932 148° Southeast  Level FlightAware Approximate
Sun 12:55:00 AM 5.3137 -65.3168 148° Southeast  Level FlightAware Approximate
Sun 12:56:00 AM 5.1916 -65.2405 148° Southeast  Level FlightAware Approximate
Sun 12:57:00 AM 5.0696 -65.1642 148° Southeast  Level FlightAware Approximate
Sun 12:58:00 AM 4.9475 -65.0879 148° Southeast  Level FlightAware Approximate
Sun 12:59:00 AM 4.8255 -65.0117 148° Southeast  Level FlightAware Approximate
Sun 01:00:00 AM 4.7034 -64.9354 148° Southeast  Level FlightAware Approximate
Sun 01:01:00 AM 4.5813 -64.8593 148° Southeast  Level FlightAware Approximate
Sun 01:02:00 AM 4.4592 -64.7831 148° Southeast  Level FlightAware Approximate
Sun 01:03:00 AM 4.3371 -64.7070 148° Southeast  Level FlightAware Approximate
Sun 01:04:00 AM 4.2150 -64.6309 148° Southeast  Level FlightAware Approximate
Sun 01:05:00 AM 4.0929 -64.5548 148° Southeast  Level FlightAware Approximate
Sun 01:06:00 AM 3.9708 -64.4787 148° Southeast  Level FlightAware Approximate
Sun 01:07:00 AM 3.8487 -64.4026 148° Southeast  Level FlightAware Approximate
Sun 01:08:00 AM 3.7266 -64.3266 148° Southeast  Level FlightAware Approximate
Sun 01:09:00 AM 3.6044 -64.2506 148° Southeast  Level FlightAware Approximate
Sun 01:10:00 AM 3.4823 -64.1746 148° Southeast  Level FlightAware Approximate
Sun 01:11:00 AM 3.3601 -64.0987 148° Southeast  Level FlightAware Approximate
Sun 01:12:00 AM 3.2380 -64.0227 148° Southeast  Level FlightAware Approximate
Sun 01:13:00 AM 3.1158 -63.9468 148° Southeast  Level FlightAware Approximate
Sun 01:14:00 AM 2.9936 -63.8709 148° Southeast  Level FlightAware Approximate
Sun 01:15:00 AM 2.8714 -63.7950 148° Southeast  Level FlightAware Approximate
Sun 01:16:00 AM 2.7493 -63.7192 148° Southeast  Level FlightAware Approximate
Sun 01:17:00 AM 2.6271 -63.6433 148° Southeast  Level FlightAware Approximate
Sun 01:18:00 AM 2.5049 -63.5675 148° Southeast  Level FlightAware Approximate
Sun 01:19:00 AM 2.3827 -63.4916 148° Southeast  Level FlightAware Approximate
Sun 01:20:00 AM 2.2605 -63.4158 148° Southeast  Level FlightAware Approximate
Sun 01:21:00 AM 2.1383 -63.3400 148° Southeast  Level FlightAware Approximate
Sun 01:22:00 AM 2.0161 -63.2642 148° Southeast  Level FlightAware Approximate
Sun 01:23:00 AM 1.8939 -63.1884 148° Southeast  Level FlightAware Approximate
Sun 01:24:00 AM 1.7717 -63.1127 148° Southeast  Level FlightAware Approximate
Sun 01:25:00 AM 1.6495 -63.0369 148° Southeast  Level FlightAware Approximate
Sun 01:26:00 AM 1.5273 -62.9612 148° Southeast  Level FlightAware Approximate
Sun 01:27:00 AM 1.4050 -62.8854 148° Southeast  Level FlightAware Approximate
Sun 01:28:00 AM 1.2828 -62.8097 148° Southeast  Level FlightAware Approximate
Sun 01:29:00 AM 1.1606 -62.7340 148° Southeast  Level FlightAware Approximate
Sun 01:30:00 AM 1.0384 -62.6582 148° Southeast  Level FlightAware Approximate
Sun 01:31:00 AM 0.9161 -62.5825 148° Southeast  Level FlightAware Approximate
Sun 01:32:00 AM 0.7939 -62.5068 148° Southeast  Level FlightAware Approximate
Sun 01:33:00 AM 0.6717 -62.4311 148° Southeast  Level FlightAware Approximate
Sun 01:34:00 AM 0.5494 -62.3554 148° Southeast  Level FlightAware Approximate
Sun 01:35:00 AM 0.4272 -62.2797 148° Southeast  Level FlightAware Approximate
Sun 01:36:00 AM 0.3050 -62.2040 148° Southeast  Level FlightAware Approximate
Sun 01:37:00 AM 0.1827 -62.1283 148° Southeast  Level FlightAware Approximate
Sun 01:38:00 AM 0.0605 -62.0526 148° Southeast  Level FlightAware Approximate
Sun 01:39:00 AM -0.0617 -61.9770 148° Southeast  Level FlightAware Approximate
Sun 01:40:00 AM -0.1840 -61.9013 148° Southeast  Level FlightAware Approximate
Sun 01:41:00 AM -0.3062 -61.8256 148° Southeast  Level FlightAware Approximate
Sun 01:42:00 AM -0.4284 -61.7499 148° Southeast  Level FlightAware Approximate
Sun 01:43:00 AM -0.5507 -61.6742 148° Southeast  Level FlightAware Approximate
Sun 01:44:00 AM -0.6729 -61.5985 148° Southeast  Level FlightAware Approximate
Sun 01:45:00 AM -0.7951 -61.5228 148° Southeast  Level FlightAware Approximate
Sun 01:46:00 AM -0.9174 -61.4471 148° Southeast  Level FlightAware Approximate
Sun 01:47:00 AM -1.0396 -61.3713 148° Southeast  Level FlightAware Approximate
Sun 01:48:00 AM -1.1618 -61.2956 148° Southeast  Level FlightAware Approximate
Sun 01:49:00 AM -1.2841 -61.2199 148° Southeast  Level FlightAware Approximate
Sun 01:50:00 AM -1.4063 -61.1442 148° Southeast  Level FlightAware Approximate
Sun 01:51:00 AM -1.5285 -61.0684 148° Southeast  Level FlightAware Approximate
Sun 01:52:00 AM -1.6507 -60.9927 148° Southeast  Level FlightAware Approximate
Sun 01:53:00 AM -1.7729 -60.9169 148° Southeast  Level FlightAware Approximate
Sun 01:54:00 AM -1.8951 -60.8411 148° Southeast  Level FlightAware Approximate
Sun 01:55:00 AM -2.0173 -60.7654 148° Southeast  Level FlightAware Approximate
Sun 01:56:00 AM -2.1395 -60.6896 148° Southeast  Level FlightAware Approximate
Sun 01:57:00 AM -2.2617 -60.6138 148° Southeast  Level FlightAware Approximate
Sun 01:58:00 AM -2.3839 -60.5380 148° Southeast  Level FlightAware Approximate
Sun 01:59:00 AM -2.5061 -60.4621 148° Southeast  Level FlightAware Approximate
Sun 02:00:00 AM -2.6283 -60.3863 148° Southeast  Level FlightAware Approximate
Sun 02:01:00 AM -2.7505 -60.3104 148° Southeast  Level FlightAware Approximate
Sun 02:02:00 AM -2.8727 -60.2346 148° Southeast  Level FlightAware Approximate
Sun 02:03:00 AM -2.9949 -60.1587 148° Southeast  Level FlightAware Approximate
Sun 02:04:00 AM -3.1170 -60.0828 148° Southeast  Level FlightAware Approximate
Sun 02:05:00 AM -3.2392 -60.0068 148° Southeast  Level FlightAware Approximate
Sun 02:06:00 AM -3.3614 -59.9309 148° Southeast  Level FlightAware Approximate
Sun 02:07:00 AM -3.4835 -59.8549 148° Southeast  Level FlightAware Approximate
Sun 02:08:00 AM -3.6056 -59.7789 148° Southeast  Level FlightAware Approximate
Sun 02:09:00 AM -3.7278 -59.7029 148° Southeast  Level FlightAware Approximate
Sun 02:10:00 AM -3.8499 -59.6269 148° Southeast  Level FlightAware Approximate
Sun 02:11:00 AM -3.9720 -59.5509 148° Southeast  Level FlightAware Approximate
Sun 02:12:00 AM -4.0942 -59.4748 148° Southeast  Level FlightAware Approximate
Sun 02:13:00 AM -4.2163 -59.3987 148° Southeast  Level FlightAware Approximate
Sun 02:14:00 AM -4.3384 -59.3226 148° Southeast  Level FlightAware Approximate
Sun 02:15:00 AM -4.4605 -59.2465 148° Southeast  Level FlightAware Approximate
Sun 02:16:00 AM -4.5826 -59.1703 148° Southeast  Level FlightAware Approximate
Sun 02:17:00 AM -4.7046 -59.0941 148° Southeast  Level FlightAware Approximate
Sun 02:18:00 AM -4.8267 -59.0179 148° Southeast  Level FlightAware Approximate
Sun 02:19:00 AM -4.9488 -58.9416 148° Southeast  Level FlightAware Approximate
Sun 02:20:00 AM -5.0708 -58.8654 148° Southeast  Level FlightAware Approximate
Sun 02:21:00 AM -5.1929 -58.7891 148° Southeast  Level FlightAware Approximate
Sun 02:22:00 AM -5.3149 -58.7127 148° Southeast  Level FlightAware Approximate
Sun 02:23:00 AM -5.4370 -58.6364 148° Southeast  Level FlightAware Approximate
Sun 02:24:00 AM -5.5590 -58.5600 148° Southeast  Level FlightAware Approximate
Sun 02:25:00 AM -5.6810 -58.4836 148° Southeast  Level FlightAware Approximate
Sun 02:26:00 AM -5.8030 -58.4071 148° Southeast  Level FlightAware Approximate
Sun 02:27:00 AM -5.9250 -58.3306 148° Southeast  Level FlightAware Approximate
Sun 02:28:00 AM -6.0470 -58.2541 148° Southeast  Level FlightAware Approximate
Sun 02:29:00 AM -6.1689 -58.1775 148° Southeast  Level FlightAware Approximate
Sun 02:30:00 AM -6.2909 -58.1009 148° Southeast  Level FlightAware Approximate
Sun 02:31:00 AM -6.4128 -58.0243 148° Southeast  Level FlightAware Approximate
Sun 02:32:00 AM -6.5348 -57.9476 148° Southeast  Level FlightAware Approximate
Sun 02:33:00 AM -6.6567 -57.8709 148° Southeast  Level FlightAware Approximate
Sun 02:34:00 AM -6.7786 -57.7942 148° Southeast  Level FlightAware Approximate
Sun 02:35:00 AM -6.9005 -57.7174 148° Southeast  Level FlightAware Approximate
Sun 02:36:00 AM -7.0224 -57.6406 148° Southeast  Level FlightAware Approximate
Sun 02:37:00 AM -7.1442 -57.5637 148° Southeast  Level FlightAware Approximate
Sun 02:38:00 AM -7.2661 -57.4868 148° Southeast  Level FlightAware Approximate
Sun 02:39:00 AM -7.3880 -57.4099 148° Southeast  Level FlightAware Approximate
Sun 02:40:00 AM -7.5098 -57.3329 148° Southeast  Level FlightAware Approximate
Sun 02:41:00 AM -7.6316 -57.2559 148° Southeast  Level FlightAware Approximate
Sun 02:42:00 AM -7.7534 -57.1788 148° Southeast  Level FlightAware Approximate
Sun 02:43:00 AM -7.8752 -57.1017 148° Southeast  Level FlightAware Approximate
Sun 02:44:00 AM -7.9970 -57.0245 148° Southeast  Level FlightAware Approximate
Sun 02:45:00 AM -8.1188 -56.9473 148° Southeast  Level FlightAware Approximate
Sun 02:46:00 AM -8.2405 -56.8701 148° Southeast  Level FlightAware Approximate
Sun 02:47:00 AM -8.3623 -56.7928 148° Southeast  Level FlightAware Approximate
Sun 02:48:00 AM -8.4840 -56.7154 148° Southeast  Level FlightAware Approximate
Sun 02:49:00 AM -8.6057 -56.6380 148° Southeast  Level FlightAware Approximate
Sun 02:50:00 AM -8.7274 -56.5606 148° Southeast  Level FlightAware Approximate
Sun 02:51:00 AM -8.8490 -56.4831 148° Southeast  Level FlightAware Approximate
Sun 02:52:00 AM -8.9707 -56.4055 148° Southeast  Level FlightAware Approximate
Sun 02:53:00 AM -9.0923 -56.3279 148° Southeast  Level FlightAware Approximate
Sun 02:54:00 AM -9.2140 -56.2503 148° Southeast  Level FlightAware Approximate
Sun 02:55:00 AM -9.3356 -56.1725 148° Southeast  Level FlightAware Approximate
Sun 02:56:00 AM -9.4572 -56.0948 148° Southeast  Level FlightAware Approximate
Sun 02:57:00 AM -9.5787 -56.0170 148° Southeast  Level FlightAware Approximate
Sun 02:58:00 AM -9.7003 -55.9391 148° Southeast  Level FlightAware Approximate
Sun 02:59:00 AM -9.8218 -55.8611 148° Southeast  Level FlightAware Approximate
Sun 03:00:00 AM -9.9434 -55.7832 148° Southeast  Level FlightAware Approximate
Sun 03:01:00 AM -10.0649 -55.7051 148° Southeast  Level FlightAware Approximate
Sun 03:02:00 AM -10.1864 -55.6270 148° Southeast  Level FlightAware Approximate
Sun 03:03:00 AM -10.3078 -55.5488 148° Southeast  Level FlightAware Approximate
Sun 03:04:00 AM -10.4293 -55.4706 148° Southeast  Level FlightAware Approximate
Sun 03:05:00 AM -10.5507 -55.3923 148° Southeast  Level FlightAware Approximate
Sun 03:06:00 AM -10.6721 -55.3140 148° Southeast  Level FlightAware Approximate
Sun 03:07:00 AM -10.7935 -55.2355 148° Southeast  Level FlightAware Approximate
Sun 03:08:00 AM -10.9149 -55.1571 148° Southeast  Level FlightAware Approximate
Sun 03:09:00 AM -11.0362 -55.0785 148° Southeast  Level FlightAware Approximate
Sun 03:10:00 AM -11.1576 -54.9999 148° Southeast  Level FlightAware Approximate
Sun 03:11:00 AM -11.2789 -54.9213 148° Southeast  Level FlightAware Approximate
Sun 03:12:00 AM -11.4002 -54.8425 148° Southeast  Level FlightAware Approximate
Sun 03:13:00 AM -11.5214 -54.7637 148° Southeast  Level FlightAware Approximate
Sun 03:14:00 AM -11.6427 -54.6849 148° Southeast  Level FlightAware Approximate
Sun 03:15:00 AM -11.7639 -54.6059 147° Southeast  Level FlightAware Approximate
Sun 03:16:00 AM -11.8851 -54.5269 147° Southeast  Level FlightAware Approximate
Sun 03:17:00 AM -12.0063 -54.4478 147° Southeast  Level FlightAware Approximate
Sun 03:18:00 AM -12.1274 -54.3687 147° Southeast  Level FlightAware Approximate
Sun 03:19:00 AM -12.2486 -54.2895 147° Southeast  Level FlightAware Approximate
Sun 03:20:00 AM -12.3697 -54.2102 147° Southeast  Level FlightAware Approximate
Sun 03:21:00 AM -12.4908 -54.1308 147° Southeast  Level FlightAware Approximate
Sun 03:22:00 AM -12.6119 -54.0513 147° Southeast  Level FlightAware Approximate
Sun 03:23:00 AM -12.7329 -53.9718 147° Southeast  Level FlightAware Approximate
Sun 03:24:00 AM -12.8539 -53.8922 147° Southeast  Level FlightAware Approximate
Sun 03:25:00 AM -12.9749 -53.8126 147° Southeast  Level FlightAware Approximate
Sun 03:26:00 AM -13.0959 -53.7328 147° Southeast  Level FlightAware Approximate
Sun 03:27:00 AM -13.2168 -53.6530 147° Southeast  Level FlightAware Approximate
Sun 03:28:00 AM -13.3378 -53.5731 147° Southeast  Level FlightAware Approximate
Sun 03:29:00 AM -13.4587 -53.4931 147° Southeast  Level FlightAware Approximate
Sun 03:30:00 AM -13.5795 -53.4130 147° Southeast  Level FlightAware Approximate
Sun 03:31:00 AM -13.7004 -53.3329 147° Southeast  Level FlightAware Approximate
Sun 03:32:00 AM -13.8212 -53.2526 147° Southeast  Level FlightAware Approximate
Sun 03:33:00 AM -13.9420 -53.1723 147° Southeast  Level FlightAware Approximate
Sun 03:34:00 AM -14.0628 -53.0919 147° Southeast  Level FlightAware Approximate
Sun 03:35:00 AM -14.1835 -53.0115 147° Southeast  Level FlightAware Approximate
Sun 03:36:00 AM -14.3042 -52.9309 147° Southeast  Level FlightAware Approximate
Sun 03:37:00 AM -14.4249 -52.8502 147° Southeast  Level FlightAware Approximate
Sun 03:38:00 AM -14.5456 -52.7695 147° Southeast  Level FlightAware Approximate
Sun 03:39:00 AM -14.6662 -52.6886 147° Southeast  Level FlightAware Approximate
Sun 03:40:00 AM -14.7868 -52.6077 147° Southeast  Level FlightAware Approximate
Sun 03:40:28 AM -18.5950 -50.2050 147° Southeast 523 602 35,000  Level FlightAware ADS-B
Sun 03:41:00 AM -14.9074 -52.5267 147° Southeast  Level FlightAware Approximate
Sun 03:41:03 AM -18.6540 -50.1580 143° Southeast 523 602 35,000  Level FlightAware ADS-B
Sun 03:41:48 AM -18.7330 -50.0920 142° Southeast 523 602 35,000  Level FlightAware ADS-B
Sun 03:42:38 AM -18.8140 -50.0250 142° Southeast 523 602 35,000  Level FlightAware ADS-B
Sun 03:43:13 AM -18.6990 -50.1200 322° Northwest 523 602 35,000  Level FlightAware ADS-B
Sun 03:43:58 AM -19.0020 -49.8760 143° Southeast 528 608 35,000  Level FlightAware ADS-B
Sun 03:44:43 AM -19.0650 -49.8240 142° Southeast 528 608 35,000  Level FlightAware ADS-B
Sun 03:45:38 AM -19.1880 -49.7240 142° Southeast 529 609 35,000  Level FlightAware ADS-B
Sun 03:46:08 AM -19.2460 -49.6740 141° Southeast 529 609 35,000  Level FlightAware ADS-B
Sun 03:46:53 AM -19.3250 -49.6070 141° Southeast 529 609 35,000  Level FlightAware ADS-B
Sun 03:47:43 AM -19.4060 -49.5370 141° Southeast 529 609 35,000  Level FlightAware ADS-B
Sun 03:48:23 AM -19.4710 -49.4820 141° Southeast 529 609 35,000  Level FlightAware ADS-B
Sun 03:49:03 AM -19.5880 -49.3860 142° Southeast 532 612 35,000  Level FlightAware ADS-B
Sun 03:49:38 AM -19.6580 -49.3270 142° Southeast 532 612 35,000  Level FlightAware ADS-B
Sun 03:50:23 AM -19.7350 -49.2620 142° Southeast 533 613 35,000  Level FlightAware ADS-B
Sun 03:51:13 AM -19.8270 -49.1850 142° Southeast 534 615 35,000  Level FlightAware ADS-B
Sun 03:51:53 AM -19.9090 -49.1150 141° Southeast 535 616 35,000  Level FlightAware ADS-B
Sun 03:52:33 AM -19.9880 -49.0480 141° Southeast 534 615 35,000  Level FlightAware ADS-B
Sun 03:53:13 AM -20.0580 -48.9880 141° Southeast 533 613 35,000  Level FlightAware ADS-B
Sun 03:53:53 AM -20.1420 -48.9170 142° Southeast 534 615 35,000  Level FlightAware ADS-B
Sun 03:54:33 AM -20.2200 -48.8500 141° Southeast 534 615 35,000  Level FlightAware ADS-B
Sun 03:55:18 AM -20.3120 -48.7750 143° Southeast 531 611 35,000  Level FlightAware ADS-B
Sun 03:56:03 AM -20.4040 -48.7200 151° Southeast 527 606 35,000  Level FlightAware ADS-B
Sun 03:56:43 AM -20.4910 -48.6730 153° Southeast 527 606 35,000  Level FlightAware ADS-B
Sun 03:57:23 AM -20.5700 -48.6310 154° Southeast 525 604 35,000  Level FlightAware ADS-B
Sun 03:58:03 AM -20.6650 -48.5800 153° Southeast 524 603 35,000  Level FlightAware ADS-B
Sun 03:58:58 AM -20.7890 -48.5140 154° Southeast 523 602 35,000  Level FlightAware ADS-B
Sun 03:59:38 AM -20.8750 -48.4680 153° Southeast 521 600 35,000  Level FlightAware ADS-B
Sun 04:00:18 AM -20.9620 -48.4210 153° Southeast 521 600 35,000  Level FlightAware ADS-B
Sun 04:00:58 AM -21.0480 -48.3750 153° Southeast 520 598 35,000  Level FlightAware ADS-B
Sun 04:01:38 AM -21.1280 -48.3170 146° Southeast 531 611 35,000  Level FlightAware ADS-B
Sun 04:02:28 AM -21.2030 -48.2360 135° Southeast 535 616 35,000  Level FlightAware ADS-B
Sun 04:03:08 AM -21.2720 -48.1570 133° Southeast 536 617 35,000  Level FlightAware ADS-B
Sun 04:03:48 AM -21.3470 -48.0710 133° Southeast 537 618 35,000  Level FlightAware ADS-B
Sun 04:04:33 AM -21.4300 -47.9770 133° Southeast 537 618 35,000  Level FlightAware ADS-B
Sun 04:05:13 AM -21.4940 -47.9050 134° Southeast 538 619 35,000  Level FlightAware ADS-B
Sun 04:05:58 AM -21.5730 -47.8160 134° Southeast 539 620 35,000 -75 Level FlightAware ADS-B
Sun 04:06:33 AM -21.6280 -47.7530 133° Southeast 528 608 34,900 -975 Descending FlightAware ADS-B
Sun 04:07:18 AM -21.7080 -47.6620 133° Southeast 517 595 33,700 -1,733 Descending FlightAware ADS-B
Sun 04:08:03 AM -21.7810 -47.5790 133° Southeast 503 579 32,300 -1,835 Descending FlightAware ADS-B
Sun 04:08:43 AM -21.8450 -47.5050 133° Southeast 498 573 31,100 -1,800 Descending FlightAware ADS-B
Sun 04:09:23 AM -21.9080 -47.4330 133° Southeast 484 557 29,900 -1,800 Descending FlightAware ADS-B
Sun 04:10:03 AM -21.9720 -47.3630 135° Southeast 475 547 28,700 -1,765 Descending FlightAware ADS-B
Sun 04:10:48 AM -22.0560 -47.3150 152° Southeast 451 519 27,400 -1,667 Descending FlightAware ADS-B
Sun 04:11:33 AM -22.1420 -47.2790 159° South 433 498 26,200 -1,624 Descending FlightAware ADS-B
Sun 04:12:13 AM -22.2190 -47.2480 160° South 434 499 25,100 -1,575 Descending FlightAware ADS-B
Sun 04:12:53 AM -22.2930 -47.2180 159° South 419 482 24,100 -1,553 Descending FlightAware ADS-B
Sun 04:13:38 AM -22.3760 -47.1830 159° South 418 481 22,900 -1,553 Descending FlightAware ADS-B
Sun 04:14:18 AM -22.4460 -47.1540 159° South 404 465 21,900 -1,482 Descending FlightAware ADS-B
Sun 04:15:03 AM -22.5260 -47.1190 158° South 395 455 20,800 -1,553 Descending FlightAware ADS-B
Sun 04:15:43 AM -22.5950 -47.0900 159° South 397 457 19,700 -1,650 Descending FlightAware ADS-B
Sun 04:16:23 AM -22.6630 -47.0610 159° South 395 455 18,600 -1,694 Descending FlightAware ADS-B
Sun 04:17:08 AM -22.7400 -47.0290 159° South 382 440 17,300 -1,694 Descending FlightAware ADS-B
Sun 04:17:48 AM -22.8070 -47.0010 159° South 379 436 16,200 -1,725 Descending FlightAware ADS-B
Sun 04:18:28 AM -22.8740 -46.9730 159° South 383 441 15,000 -1,906 Descending FlightAware ADS-B
Sun 04:19:13 AM -22.9490 -46.9420 159° South 380 437 13,500 -2,100 Descending FlightAware ADS-B
Sun 04:19:48 AM -23.0080 -46.9170 159° South 380 437 12,200 -2,188 Descending FlightAware ADS-B
Sun 04:20:38 AM -23.0910 -46.8820 159° South 378 435 10,400 -1,760 Descending FlightAware ADS-B
Sun 04:21:03 AM -23.1330 -46.8640 158° South 365 420 10,000 -545 Descending FlightAware ADS-B
Sun 04:21:33 AM -23.1770 -46.8460 159° South 314 361 9,900 -655 Descending FlightAware ADS-B
Sun 04:21:58 AM -23.2110 -46.8310 158° South 296 341 9,400 -1,286 Descending FlightAware ADS-B
Sun 04:22:43 AM -23.2670 -46.8070 159° South 274 315 8,400 -1,286 Descending FlightAware ADS-B
Sun 04:23:08 AM -23.2980 -46.7940 159° South 278 320 7,900 -1,200 Descending FlightAware ADS-B
Sun 04:23:33 AM -23.3280 -46.7820 160° South 277 319 7,400 -900 Descending FlightAware ADS-B
Sun 04:24:08 AM -23.3680 -46.7630 156° South 258 297 7,000 -600 Descending FlightAware ADS-B
Sun 04:24:33 AM -23.3910 -46.7450 144° Southeast 233 268 6,800 -764 Descending FlightAware ADS-B
Sun 04:25:03 AM -23.4140 -46.7240 140° Southeast 219 252 6,300 -1,200 Descending FlightAware ADS-B
Sun 04:25:28 AM -23.4330 -46.7060 139° Southeast 203 234 5,700 -1,527 Descending FlightAware ADS-B
Sun 04:25:58 AM -23.4520 -46.6810 130° Southeast 205 236 4,900 -1,100 Descending FlightAware ADS-B
Sun 04:26:28 AM -23.4640 -46.6540 116° Southeast 196 226 4,600 -327 Descending FlightAware ADS-B
Sun 04:26:53 AM -23.4730 -46.6320 114° Southeast 191 220 4,600  Level FlightAware ADS-B
Sun 04:27:08 AM -23.4740 -46.6170 94° East 200 230 4,600 -200 Level FlightAware ADS-B
Sun 04:27:23 AM -23.4700 -46.6040 71° East 193 222 4,500 -750 Descending FlightAware ADS-B
Sun 04:27:48 AM -23.4640 -46.5810 74° East 179 206 4,100 -982 Descending FlightAware ADS-B
Sun 04:28:18 AM -23.4570 -46.5550 74° East 171 197 3,600 -835 Descending FlightAware ADS-B
Sun 04:29:43 AM -23.4390 -46.4890 73° East 169 194 2,500 -867 Descending FlightAware ADS-B
Sun 04:29:48 AM -23.4380 -46.4840 78° East 169 194 2,300 -2,400 Descending FlightAware ADS-B
Sun 04:33:00 AM -23.4321 -46.4695 145° Southeast  Level Estimated
Sun 04:34:00 AM -23.4321 -46.4695 145° Southeast  Level Estimated

Login

Don't have an account? Register now (free) for customized features, flight alerts, and more!